createdAt,value
2022-09-26T00:01:20.415Z,99341.56
2022-09-26T00:03:49.908Z,99337.34
2022-09-26T00:06:18.334Z,99339.31
2022-09-26T00:08:46.843Z,99329.81
2022-09-26T00:11:17.465Z,99332.59
2022-09-26T00:13:45.196Z,99323.94
2022-09-26T00:16:13.460Z,99325.88
2022-09-26T00:18:40.577Z,99328.53
2022-09-26T00:21:11.095Z,99327.84
2022-09-26T00:23:38.337Z,99334.84
2022-09-26T00:26:06.178Z,99336.09
2022-09-26T00:28:33.065Z,99329.94
2022-09-26T00:31:05.485Z,99344.31
2022-09-26T00:33:32.831Z,99347.97
2022-09-26T00:35:59.754Z,99349.09
2022-09-26T00:38:26.778Z,99344.03
2022-09-26T00:40:54.073Z,99346.78
2022-09-26T00:43:35.913Z,99348.63
2022-09-26T00:46:40.101Z,99355.75
2022-09-26T00:49:25.774Z,99375.47
2022-09-26T00:51:58.011Z,99365.81
2022-09-26T00:54:28.061Z,99361.59
2022-09-26T00:56:59.009Z,99371.53
2022-09-26T00:59:30.647Z,99370.84
2022-09-26T01:01:59.656Z,99375.16
2022-09-26T01:04:29.246Z,99360.47
2022-09-26T01:06:58.398Z,99366.75
2022-09-26T01:09:27.637Z,99374.03
2022-09-26T01:11:55.660Z,99374.28
2022-09-26T01:14:22.738Z,99383.94
2022-09-26T01:16:54.222Z,99388.25
2022-09-26T01:19:35.640Z,99386.72
2022-09-26T01:22:17.646Z,99385.31
2022-09-26T01:25:18.784Z,99371.31
2022-09-26T01:28:07.318Z,99370.50
2022-09-26T01:31:13.370Z,99380.28
2022-09-26T01:33:46.402Z,99373.28
2022-09-26T01:36:23.763Z,99377.03
2022-09-26T01:39:11.892Z,99366.56
2022-09-26T01:41:58.531Z,99378.00
2022-09-26T01:44:40.112Z,99378.16
2022-09-26T01:47:15.737Z,99375.66
2022-09-26T01:49:54.250Z,99381.91
2022-09-26T01:52:28.872Z,99393.50
2022-09-26T01:55:14.692Z,99388.44
2022-09-26T01:57:53.191Z,99391.00
2022-09-26T02:00:21.041Z,99391.94
2022-09-26T02:02:49.995Z,99388.59
2022-09-26T02:05:25.407Z,99388.59
2022-09-26T02:08:04.529Z,99388.75
2022-09-26T02:10:36.769Z,99396.69
2022-09-26T02:13:11.741Z,99391.50
2022-09-26T02:15:40.721Z,99399.34
2022-09-26T02:18:20.519Z,99409.97
2022-09-26T02:20:55.989Z,99404.66
2022-09-26T02:23:22.802Z,99405.63
2022-09-26T02:25:49.715Z,99412.63
2022-09-26T02:28:16.602Z,99419.59
2022-09-26T02:30:46.419Z,99417.94
2022-09-26T02:33:13.771Z,99422.41
2022-09-26T02:35:55.947Z,99422.50
2022-09-26T02:38:25.198Z,99429.78
2022-09-26T02:41:18.156Z,99430.03
2022-09-26T02:44:00.953Z,99428.13
2022-09-26T02:46:38.647Z,99429.19
2022-09-26T02:49:22.288Z,99427.53
2022-09-26T02:52:08.333Z,99430.28
2022-09-26T02:55:01.820Z,99434.78
2022-09-26T02:57:46.260Z,99433.25
2022-09-26T03:00:21.354Z,99449.97
2022-09-26T03:03:04.447Z,99449.41
2022-09-26T03:05:35.284Z,99459.03
2022-09-26T03:08:12.741Z,99450.28
2022-09-26T03:10:41.050Z,99449.41
2022-09-26T03:13:13.536Z,99448.69
2022-09-26T03:15:45.421Z,99453.28
2022-09-26T03:18:17.159Z,99455.25
2022-09-26T03:20:44.866Z,99447.13
2022-09-26T03:23:11.661Z,99449.94
2022-09-26T03:25:39.716Z,99449.94
2022-09-26T03:28:06.612Z,99452.59
2022-09-26T03:30:33.922Z,99455.50
2022-09-26T03:33:03.380Z,99465.25
2022-09-26T03:35:30.500Z,99457.44
2022-09-26T03:37:57.303Z,99471.66
2022-09-26T03:40:24.143Z,99459.50
2022-09-26T03:42:51.059Z,99468.31
2022-09-26T03:45:17.981Z,99458.78
2022-09-26T03:47:44.786Z,99463.25
2022-09-26T03:50:11.811Z,99473.88
2022-09-26T03:52:38.610Z,99493.44
2022-09-26T03:55:05.775Z,99495.34
2022-09-26T03:57:32.874Z,99492.84
2022-09-26T03:59:59.689Z,99491.28
2022-09-26T04:02:26.615Z,99497.28
2022-09-26T04:04:53.423Z,99500.91
2022-09-26T04:07:20.235Z,99502.84
2022-09-26T04:09:47.074Z,99498.53
2022-09-26T04:12:13.878Z,99500.34
2022-09-26T04:14:40.820Z,99502.25
2022-09-26T04:17:08.108Z,99506.75
2022-09-26T04:19:34.950Z,99509.50
2022-09-26T04:22:01.800Z,99499.88
2022-09-26T04:24:28.600Z,99514.25
2022-09-26T04:26:55.563Z,99522.31
2022-09-26T04:29:22.786Z,99527.63
2022-09-26T04:31:51.552Z,99533.75
2022-09-26T04:34:21.304Z,99541.88
2022-09-26T04:36:51.916Z,99540.88
2022-09-26T04:39:19.163Z,99537.28
2022-09-26T04:41:45.955Z,99531.81
2022-09-26T04:44:13.111Z,99530.03
2022-09-26T04:46:39.933Z,99532.66
2022-09-26T04:49:06.874Z,99530.16
2022-09-26T04:51:33.785Z,99535.47
2022-09-26T04:54:00.685Z,99535.47
2022-09-26T04:56:29.738Z,99540.78
2022-09-26T04:58:58.252Z,99548.59
2022-09-26T05:01:25.963Z,99556.69
2022-09-26T05:03:55.977Z,99551.38
2022-09-26T05:06:22.883Z,99557.38
2022-09-26T05:08:49.876Z,99558.09
2022-09-26T05:11:18.086Z,99565.09
2022-09-26T05:13:45.351Z,99570.16
2022-09-26T05:16:14.672Z,99583.44
2022-09-26T05:18:42.274Z,99590.41
2022-09-26T05:21:09.261Z,99593.75
2022-09-26T05:23:55.510Z,99603.41
2022-09-26T05:26:32.340Z,99587.50
2022-09-26T05:29:08.398Z,99589.06
2022-09-26T05:31:38.174Z,99591.72
2022-09-26T05:34:14.355Z,99585.31
2022-09-26T05:36:45.553Z,99596.63
2022-09-26T05:39:30.743Z,99608.69
2022-09-26T05:41:59.563Z,99615.66
2022-09-26T05:44:26.897Z,99619.31
2022-09-26T05:46:53.813Z,99618.84
2022-09-26T05:49:20.746Z,99611.59
2022-09-26T05:51:47.697Z,99620.41
2022-09-26T05:54:14.646Z,99623.28
2022-09-26T05:56:41.577Z,99634.75
2022-09-26T05:59:08.707Z,99629.69
2022-09-26T06:01:36.266Z,99624.50
2022-09-26T06:04:03.434Z,99629.00
2022-09-26T06:06:30.611Z,99633.56
2022-09-26T06:08:57.590Z,99632.47
2022-09-26T06:11:33.689Z,99639.72
2022-09-26T06:14:01.127Z,99633.31
2022-09-26T06:16:28.993Z,99638.63
2022-09-26T06:18:56.102Z,99638.84
2022-09-26T06:21:24.086Z,99636.19
2022-09-26T06:23:50.986Z,99641.78
2022-09-26T06:26:26.155Z,99639.94
2022-09-26T06:29:07.831Z,99639.63
2022-09-26T06:31:34.969Z,99644.47
2022-09-26T06:34:02.049Z,99650.94
2022-09-26T06:36:28.889Z,99667.94
2022-09-26T06:38:57.000Z,99666.38
2022-09-26T06:41:26.706Z,99669.00
2022-09-26T06:43:53.918Z,99670.97
2022-09-26T06:46:21.930Z,99678.91
2022-09-26T06:48:49.172Z,99687.81
2022-09-26T06:51:16.108Z,99686.25
2022-09-26T06:53:46.158Z,99693.75
2022-09-26T06:56:13.761Z,99693.75
2022-09-26T06:58:40.690Z,99691.22
2022-09-26T07:01:08.041Z,99688.44
2022-09-26T07:03:35.174Z,99700.84
2022-09-26T07:06:02.185Z,99691.22
2022-09-26T07:08:57.467Z,99690.47
2022-09-26T07:11:35.002Z,99700.25
2022-09-26T07:14:03.544Z,99695.06
2022-09-26T07:16:31.152Z,99692.53
2022-09-26T07:18:58.223Z,99696.16
2022-09-26T07:21:25.217Z,99690.84
2022-09-26T07:23:56.935Z,99701.44
2022-09-26T07:26:23.879Z,99702.53
2022-09-26T07:28:54.439Z,99697.47
2022-09-26T07:31:23.981Z,99693.16
2022-09-26T07:33:51.313Z,99692.16
2022-09-26T07:36:18.789Z,99692.16
2022-09-26T07:38:49.008Z,99698.69
2022-09-26T07:41:16.755Z,99704.94
2022-09-26T07:46:49.834Z,99712.78
2022-09-26T07:49:35.585Z,99708.31
2022-09-26T07:52:03.390Z,99708.31
2022-09-26T07:54:30.320Z,99716.38
2022-09-26T07:56:57.475Z,99715.53
2022-09-26T07:59:24.516Z,99719.16
2022-09-26T08:01:53.122Z,99722.78
2022-09-26T08:04:20.210Z,99731.81
2022-09-26T08:06:47.368Z,99735.31
2022-09-26T08:09:14.454Z,99742.50
2022-09-26T08:11:42.457Z,99736.41
2022-09-26T08:14:09.652Z,99747.09
2022-09-26T08:16:40.003Z,99740.00
2022-09-26T08:19:08.675Z,99748.91
2022-09-26T08:21:35.973Z,99757.84
2022-09-26T08:24:03.040Z,99762.38
2022-09-26T08:26:30.042Z,99762.28
2022-09-26T08:28:59.279Z,99762.38
2022-09-26T08:31:26.584Z,99771.31
2022-09-26T08:33:54.400Z,99762.50
2022-09-26T08:36:21.842Z,99762.50
2022-09-26T08:38:50.651Z,99758.06
2022-09-26T08:41:32.699Z,99761.78
2022-09-26T08:44:22.871Z,99760.94
2022-09-26T08:47:39.130Z,99756.25
2022-09-26T08:50:36.775Z,99759.63
2022-09-26T08:53:16.763Z,99752.31
2022-09-26T08:55:46.951Z,99765.41
2022-09-26T08:58:29.095Z,99750.47
2022-09-26T09:01:03.213Z,99745.06
2022-09-26T09:03:52.230Z,99740.63
2022-09-26T09:06:19.846Z,99745.91
2022-09-26T09:08:51.730Z,99751.22
2022-09-26T09:11:33.898Z,99756.53
2022-09-26T09:14:10.035Z,99767.13
2022-09-26T09:17:00.177Z,99752.16
2022-09-26T09:19:32.480Z,99753.13
2022-09-26T09:22:27.156Z,99755.91
2022-09-26T09:25:13.577Z,99758.69
2022-09-26T09:28:12.835Z,99756.97
2022-09-26T09:30:40.019Z,99764.94
2022-09-26T09:33:21.561Z,99767.81
2022-09-26T09:35:54.126Z,99757.22
2022-09-26T09:38:27.210Z,99760.94
2022-09-26T09:41:03.252Z,99754.91
2022-09-26T09:43:56.659Z,99762.88
2022-09-26T09:46:29.080Z,99773.56
2022-09-26T09:49:18.154Z,99769.13
2022-09-26T09:52:14.198Z,99762.16
2022-09-26T09:55:16.668Z,99765.75
2022-09-26T09:57:52.474Z,99765.75
2022-09-26T10:00:24.807Z,99764.91
2022-09-26T10:03:19.541Z,99768.50
2022-09-26T10:05:50.977Z,99760.69
2022-09-26T10:08:27.692Z,99769.56
2022-09-26T10:11:13.403Z,99761.75
2022-09-26T10:13:43.270Z,99762.72
2022-09-26T10:16:14.757Z,99757.41
2022-09-26T10:19:04.499Z,99759.25
2022-09-26T10:21:35.823Z,99764.53
2022-09-26T10:24:06.856Z,99760.28
2022-09-26T10:26:36.990Z,99753.31
2022-09-26T10:29:25.203Z,99756.06
2022-09-26T10:31:56.613Z,99762.44
2022-09-26T10:34:31.331Z,99749.31
2022-09-26T10:37:20.937Z,99753.78
2022-09-26T10:40:17.300Z,99760.78
2022-09-26T10:42:47.411Z,99748.47
2022-09-26T10:45:27.458Z,99750.41
2022-09-26T10:47:57.258Z,99749.47
2022-09-26T10:50:28.793Z,99745.09
2022-09-26T10:53:10.136Z,99747.03
2022-09-26T10:55:44.301Z,99747.97
2022-09-26T10:58:18.583Z,99768.22
2022-09-26T11:00:52.628Z,99747.97
2022-09-26T11:03:33.590Z,99743.63
2022-09-26T11:06:00.826Z,99751.47
2022-09-26T11:08:30.428Z,99754.00
2022-09-26T11:11:11.531Z,99761.94
2022-09-26T11:13:46.716Z,99753.16
2022-09-26T11:16:17.808Z,99759.94
2022-09-26T11:18:50.728Z,99761.63
2022-09-26T11:22:14.936Z,99758.00
2022-09-26T11:25:09.635Z,99757.75
2022-09-26T11:27:45.425Z,99758.50
2022-09-26T11:30:17.888Z,99755.84
2022-09-26T11:32:52.255Z,99752.34
2022-09-26T11:35:31.201Z,99750.53
2022-09-26T11:38:24.318Z,99761.03
2022-09-26T11:41:16.876Z,99754.16
2022-09-26T11:43:59.171Z,99748.03
2022-09-26T11:46:34.767Z,99752.47
2022-09-26T11:49:35.732Z,99753.31
2022-09-26T11:52:30.053Z,99755.97
2022-09-26T11:55:18.241Z,99749.94
2022-09-26T11:58:03.624Z,99729.56
2022-09-26T12:00:49.082Z,99728.00
2022-09-26T12:03:41.453Z,99723.44
2022-09-26T12:06:19.303Z,99716.47
2022-09-26T12:08:58.105Z,99697.91
2022-09-26T12:11:53.553Z,99707.78
2022-09-26T12:14:45.979Z,99699.00
2022-09-26T12:17:35.599Z,99699.72
2022-09-26T12:20:17.867Z,99694.41
2022-09-26T12:22:53.668Z,99686.22
2022-09-26T12:25:26.809Z,99682.72
2022-09-26T12:28:38.395Z,99671.56
2022-09-26T12:31:43.590Z,99676.84
2022-09-26T12:34:16.623Z,99670.94
2022-09-26T12:37:14.745Z,99689.56
2022-09-26T12:40:01.090Z,99694.06
2022-09-26T12:42:37.023Z,99692.22
2022-09-26T12:45:06.989Z,99707.16
2022-09-26T12:48:06.574Z,99714.03
2022-09-26T12:50:44.649Z,99714.75
2022-09-26T12:53:20.713Z,99727.06
2022-09-26T12:56:11.442Z,99735.84
2022-09-26T12:58:47.187Z,99724.28
2022-09-26T13:01:41.732Z,99733.06
2022-09-26T13:04:34.795Z,99735.72
2022-09-26T13:07:28.091Z,99745.38
2022-09-26T13:10:07.529Z,99744.38
2022-09-26T13:12:52.568Z,99751.53
2022-09-26T13:15:35.984Z,99760.28
2022-09-26T13:18:12.903Z,99765.84
2022-09-26T13:20:45.296Z,99780.88
2022-09-26T13:23:35.233Z,99778.34
2022-09-26T13:26:26.351Z,99767.75
2022-09-26T13:29:23.700Z,99772.31
2022-09-26T13:32:15.956Z,99768.81
2022-09-26T13:34:52.107Z,99766.06
2022-09-26T13:37:35.218Z,99763.53
2022-09-26T13:40:21.563Z,99774.97
2022-09-26T13:43:04.324Z,99771.59
2022-09-26T13:45:59.339Z,99776.91
2022-09-26T13:48:50.523Z,99776.03
2022-09-26T13:51:30.993Z,99772.53
2022-09-26T13:54:13.505Z,99764.59
2022-09-26T13:56:48.631Z,99762.94
2022-09-26T13:59:16.021Z,99767.25
2022-09-26T14:02:16.899Z,99774.47
2022-09-26T14:04:46.077Z,99775.19
2022-09-26T14:07:32.196Z,99778.81
2022-09-26T14:10:05.527Z,99779.78
2022-09-26T14:12:52.990Z,99786.88
2022-09-26T14:15:27.354Z,99792.16
2022-09-26T14:18:07.516Z,99781.56
2022-09-26T14:20:52.870Z,99782.41
2022-09-26T14:23:40.391Z,99764.81
2022-09-26T14:26:41.118Z,99767.59
2022-09-26T14:29:29.746Z,99756.16
2022-09-26T14:32:16.698Z,99779.16
2022-09-26T14:34:54.015Z,99779.38
2022-09-26T14:37:26.806Z,99784.56
2022-09-26T14:40:00.202Z,99802.41
2022-09-26T14:42:37.399Z,99806.84
2022-09-26T14:45:20.376Z,99797.09
2022-09-26T14:48:01.396Z,99790.94
2022-09-26T14:50:34.691Z,99794.53
2022-09-26T14:53:31.914Z,99793.81
2022-09-26T14:56:03.351Z,99792.97
2022-09-26T14:58:37.537Z,99780.69
2022-09-26T15:01:37.827Z,99780.81
2022-09-26T15:04:19.586Z,99776.34
2022-09-26T15:06:54.702Z,99767.69
2022-09-26T15:09:31.593Z,99784.44
2022-09-26T15:12:02.804Z,99772.13
2022-09-26T15:14:40.713Z,99768.75
2022-09-26T15:17:19.017Z,99768.75
2022-09-26T15:19:52.496Z,99771.50
2022-09-26T15:22:24.185Z,99770.66
2022-09-26T15:24:55.889Z,99765.47
2022-09-26T15:27:29.611Z,99757.75
2022-09-26T15:30:07.102Z,99764.75
2022-09-26T15:32:34.638Z,99772.81
2022-09-26T15:35:03.870Z,99771.00
2022-09-26T15:37:36.512Z,99777.28
2022-09-26T15:40:20.153Z,99781.72
2022-09-26T15:43:01.859Z,99778.22
2022-09-26T15:45:33.341Z,99792.31
2022-09-26T15:48:04.639Z,99796.75
2022-09-26T15:50:31.797Z,99800.34
2022-09-26T15:53:04.816Z,99795.06
2022-09-26T15:55:37.241Z,99804.03
2022-09-26T15:58:07.172Z,99807.88
2022-09-26T16:00:37.801Z,99806.09
2022-09-26T16:03:18.251Z,99798.59
2022-09-26T16:05:48.280Z,99790.88
2022-09-26T16:08:27.221Z,99792.44
2022-09-26T16:10:59.931Z,99788.72
2022-09-26T16:13:35.627Z,99785.94
2022-09-26T16:16:08.252Z,99789.44
2022-09-26T16:18:40.181Z,99778.97
2022-09-26T16:21:22.760Z,99786.06
2022-09-26T16:23:52.973Z,99780.66
2022-09-26T16:26:44.489Z,99781.50
2022-09-26T16:29:11.736Z,99782.25
2022-09-26T16:31:47.152Z,99787.78
2022-09-26T16:34:19.205Z,99794.97
2022-09-26T16:36:46.588Z,99796.78
2022-09-26T16:39:24.256Z,99805.81
2022-09-26T16:42:01.752Z,99805.81
2022-09-26T16:44:50.274Z,99812.91
2022-09-26T16:47:35.669Z,99812.91
2022-09-26T16:50:31.615Z,99820.13
2022-09-26T16:52:58.623Z,99835.13
2022-09-26T16:55:27.591Z,99831.63
2022-09-26T16:58:00.509Z,99832.59
2022-09-26T17:00:52.654Z,99841.50
2022-09-26T17:03:32.492Z,99847.63
2022-09-26T17:06:00.906Z,99848.47
2022-09-26T17:08:28.506Z,99846.59
2022-09-26T17:10:59.697Z,99860.63
2022-09-26T17:13:27.952Z,99860.63
2022-09-26T17:15:57.566Z,99859.06
2022-09-26T17:18:29.716Z,99853.75
2022-09-26T17:20:59.450Z,99854.63
2022-09-26T17:23:42.712Z,99850.19
2022-09-26T17:26:20.117Z,99845.72
2022-09-26T17:28:47.714Z,99846.47
2022-09-26T17:31:20.058Z,99852.47
2022-09-26T17:33:51.694Z,99849.84
2022-09-26T17:36:25.455Z,99850.69
2022-09-26T17:38:53.661Z,99863.06
2022-09-26T17:41:22.704Z,99860.34
2022-09-26T17:43:50.543Z,99867.19
2022-09-26T17:46:17.570Z,99867.19
2022-09-26T17:48:45.167Z,99870.44
2022-09-26T17:51:14.816Z,99871.44
2022-09-26T17:53:50.362Z,99873.00
2022-09-26T17:56:18.083Z,99880.81
2022-09-26T17:58:47.467Z,99869.19
2022-09-26T18:01:27.039Z,99865.25
2022-09-26T18:04:00.177Z,99862.41
2022-09-26T18:06:31.869Z,99846.16
2022-09-26T18:09:05.504Z,99841.38
2022-09-26T18:11:34.789Z,99832.47
2022-09-26T18:14:04.659Z,99831.19
2022-09-26T18:16:31.955Z,99821.22
2022-09-26T18:19:02.146Z,99824.59
2022-09-26T18:21:34.725Z,99829.44
2022-09-26T18:24:07.304Z,99823.66
2022-09-26T18:26:44.990Z,99824.06
2022-09-26T18:29:15.587Z,99825.50
2022-09-26T18:31:46.564Z,99835.78
2022-09-26T18:34:18.947Z,99845.78
2022-09-26T18:36:46.902Z,99839.41
2022-09-26T18:39:13.995Z,99838.34
2022-09-26T18:41:41.225Z,99838.81
2022-09-26T18:44:16.788Z,99843.03
2022-09-26T18:46:46.466Z,99848.84
2022-09-26T18:49:14.011Z,99840.78
2022-09-26T18:51:41.106Z,99849.22
2022-09-26T18:54:17.354Z,99845.28
2022-09-26T18:57:03.069Z,99847.69
2022-09-26T18:59:31.470Z,99843.81
2022-09-26T19:02:01.606Z,99843.38
2022-09-26T19:04:31.334Z,99844.81
2022-09-26T19:07:05.343Z,99849.91
2022-09-26T19:09:34.612Z,99842.78
2022-09-26T19:12:03.018Z,99861.72
2022-09-26T19:14:31.922Z,99855.47
2022-09-26T19:16:59.792Z,99856.78
2022-09-26T19:19:29.397Z,99853.75
2022-09-26T19:22:12.984Z,99857.75
2022-09-26T19:24:52.611Z,99863.06
2022-09-26T19:27:54.897Z,99860.31
2022-09-26T19:30:23.141Z,99866.19
2022-09-26T19:32:56.512Z,99854.50
2022-09-26T19:35:31.051Z,99858.59
2022-09-26T19:38:02.050Z,99853.06
2022-09-26T19:40:29.893Z,99841.47
2022-09-26T19:42:57.779Z,99846.78
2022-09-26T19:45:27.439Z,99836.75
2022-09-26T19:47:56.531Z,99848.00
2022-09-26T19:50:28.997Z,99844.34
2022-09-26T19:53:01.434Z,99856.78
2022-09-26T19:55:38.883Z,99858.63
2022-09-26T19:58:18.111Z,99863.91
2022-09-26T20:00:50.118Z,99863.66
2022-09-26T20:03:20.314Z,99859.09
2022-09-26T20:05:49.815Z,99861.75
2022-09-26T20:08:25.504Z,99865.97
2022-09-26T20:10:55.089Z,99863.41
2022-09-26T20:13:22.471Z,99869.47
2022-09-26T20:15:49.859Z,99873.78
2022-09-26T20:18:21.194Z,99872.94
2022-09-26T20:20:53.865Z,99866.19
2022-09-26T20:23:23.794Z,99870.41
2022-09-26T20:25:53.173Z,99869.72
2022-09-26T20:28:20.771Z,99859.09
2022-09-26T20:30:54.827Z,99867.91
2022-09-26T20:33:24.178Z,99869.72
2022-09-26T20:36:02.870Z,99866.06
2022-09-26T20:38:49.738Z,99862.47
2022-09-26T20:41:16.853Z,99871.84
2022-09-26T20:43:47.185Z,99867.53
2022-09-26T20:46:15.347Z,99861.38
2022-09-26T20:48:44.798Z,99859.81
2022-09-26T20:51:27.664Z,99863.53
2022-09-26T20:53:54.929Z,99862.84
2022-09-26T20:56:22.204Z,99865.72
2022-09-26T20:58:49.729Z,99867.53
2022-09-26T21:01:18.968Z,99857.16
2022-09-26T21:03:56.296Z,99850.41
2022-09-26T21:06:28.457Z,99861.97
2022-09-26T21:08:55.780Z,99857.63
2022-09-26T21:11:23.315Z,99858.00
2022-09-26T21:13:51.058Z,99851.84
2022-09-26T21:16:22.343Z,99849.41
2022-09-26T21:18:52.417Z,99848.00
2022-09-26T21:21:19.678Z,99840.75
2022-09-26T21:23:48.432Z,99841.97
2022-09-26T21:26:24.126Z,99834.97
2022-09-26T21:28:52.421Z,99835.09
2022-09-26T21:31:31.234Z,99837.84
2022-09-26T21:34:00.009Z,99829.16
2022-09-26T21:36:34.917Z,99824.09
2022-09-26T21:39:02.777Z,99823.00
2022-09-26T21:41:30.828Z,99824.94
2022-09-26T21:44:06.326Z,99818.06
2022-09-26T21:46:33.409Z,99820.59
2022-09-26T21:49:00.632Z,99815.41
2022-09-26T21:51:29.475Z,99813.72
2022-09-26T21:54:03.636Z,99819.03
2022-09-26T21:56:35.910Z,99806.75
2022-09-26T21:59:05.934Z,99812.28
2022-09-26T22:01:32.975Z,99813.13
2022-09-26T22:04:00.115Z,99799.03
2022-09-26T22:06:27.511Z,99797.56
2022-09-26T22:08:54.983Z,99800.72
2022-09-26T22:11:22.417Z,99799.25
2022-09-26T22:13:49.425Z,99796.81
2022-09-26T22:16:17.058Z,99798.03
2022-09-26T22:18:44.160Z,99786.94
2022-09-26T22:21:11.580Z,99783.53
2022-09-26T22:23:39.190Z,99790.66
2022-09-26T22:26:06.829Z,99788.34
2022-09-26T22:28:33.742Z,99784.03
2022-09-26T22:31:02.180Z,99782.56
2022-09-26T22:33:29.788Z,99772.19
2022-09-26T22:35:57.674Z,99774.13
2022-09-26T22:38:25.129Z,99775.91
2022-09-26T22:41:05.792Z,99767.25
2022-09-26T22:43:34.090Z,99767.47
2022-09-26T22:46:03.409Z,99773.88
2022-09-26T22:48:38.161Z,99772.28
2022-09-26T22:51:06.301Z,99774.94
2022-09-26T22:53:35.729Z,99764.56
2022-09-26T22:56:05.606Z,99765.66
2022-09-26T22:58:36.869Z,99767.44
2022-09-26T23:01:09.479Z,99756.97
2022-09-26T23:03:36.923Z,99765.28
2022-09-26T23:06:05.240Z,99757.44
2022-09-26T23:08:33.400Z,99745.16
2022-09-26T23:11:01.599Z,99737.22
2022-09-26T23:13:30.428Z,99727.56
2022-09-26T23:16:04.892Z,99716.25
2022-09-26T23:18:31.952Z,99720.81
2022-09-26T23:20:58.796Z,99712.97
2022-09-26T23:23:25.716Z,99713.13
2022-09-26T23:25:52.563Z,99688.66
2022-09-26T23:28:19.520Z,99690.34
2022-09-26T23:30:47.036Z,99681.88
2022-09-26T23:33:13.983Z,99684.53
2022-09-26T23:35:40.934Z,99682.72
2022-09-26T23:38:08.258Z,99689.13
2022-09-26T23:40:37.790Z,99679.59
2022-09-26T23:43:04.768Z,99677.94
2022-09-26T23:45:31.625Z,99669.00
2022-09-26T23:47:58.556Z,99669.22
2022-09-26T23:50:26.183Z,99663.09
2022-09-26T23:52:53.738Z,99663.94
2022-09-26T23:55:20.573Z,99659.84
2022-09-26T23:57:47.374Z,99666.00
